Observations for Trim Market St
| Time | AQI | Temp °C | Hum % | Pres Pa | CO μg/m³ | H₂S μg/m³ | NO μg/m³ | NO₂ μg/m³ | O₃ μg/m³ | SO₂ μg/m³ | PM1 μg/m³ | PM2.5 μg/m³ | PM10 μg/m³ |
|---|---|---|---|---|---|---|---|---|---|---|---|---|---|
| Tuesday 18 August 2026 | |||||||||||||
| 22:16 | 2 | 15.5 | 83 | 2,147,483,647 | 0.27 | 0 | 2.28 | 12.69 | 53.04 | 0 | 0.71 | 2.44 | 6.43 |
| 22:14 | 2 | 15.4 | 83 | 2,147,483,647 | 0.33 | 0 | 2.28 | 7.95 | 47.66 | 0 | 0.71 | 2.44 | 5.88 |
| 22:08 | 2 | 15.5 | 83 | 2,147,483,647 | 0.27 | 0 | 2.28 | 7.96 | 55.38 | 0 | 2.85 | 3.38 | 6.43 |
| 22:07 | 2 | 15.5 | 83 | 2,147,483,647 | 0.26 | 0 | 2.28 | 8.62 | 51.2 | 0 | 0.71 | 1.98 | 5.88 |
| 22:06 | 2 | 15.5 | 83 | 2,147,483,647 | 0.26 | 0 | 2.26 | 8.62 | 53.42 | 0 | 0.71 | 2.45 | 6.43 |
| 22:05 | 2 | 15.5 | 83 | 2,147,483,647 | 0.24 | 0 | 2.28 | 8.18 | 49.89 | 0 | 2.14 | 3.38 | 7.53 |
| 22:04 | 2 | 15.5 | 83 | 2,147,483,647 | 0.26 | 0 | 2.28 | 8.02 | 53.28 | 0 | 1.43 | 2.45 | 6.43 |
| 22:03 | 2 | 15.5 | 83 | 2,147,483,647 | 0.31 | 0 | 2.27 | 9.21 | 50.05 | 0 | 2.14 | 3.39 | 6.98 |
| 22:02 | 2 | 15.5 | 83 | 2,147,483,647 | 0.43 | 0 | 2.28 | 8.02 | 50.83 | 0 | 0.71 | 2.45 | 5.88 |
| 22:01 | 2 | 15.5 | 83 | 2,147,483,647 | 0.52 | 0 | 2.31 | 7.78 | 49.21 | 0 | 2.14 | 3.86 | 8.63 |
| 22:00 | 2 | 15.5 | 83 | 2,147,483,647 | 0.62 | 0 | 2.29 | 8.18 | 53.59 | 0 | 2.14 | 2.92 | 6.43 |
| 21:59 | 2 | 15.5 | 83 | 2,147,483,647 | 0.55 | 0 | 2.28 | 8.07 | 54.29 | 0 | 1.43 | 2.46 | 5.33 |
| 21:58 | 2 | 15.5 | 83 | 2,147,483,647 | 0.54 | 0 | 2.29 | 8.45 | 51.39 | 0 | 1.43 | 2.46 | 5.33 |
| 21:57 | 2 | 15.5 | 83 | 2,147,483,647 | 0.47 | 0 | 2.29 | 8.89 | 53.55 | 0 | 1.43 | 2.93 | 7.53 |
| 21:56 | 2 | 15.5 | 83 | 2,147,483,647 | 0.38 | 0 | 2.27 | 12.02 | 51.76 | 0 | 1.43 | 2.93 | 5.88 |
| 21:55 | 2 | 15.5 | 83 | 2,147,483,647 | 0.24 | 0 | 2.26 | 7.04 | 54.99 | 0 | 0.71 | 2.46 | 6.98 |
| 21:52 | 2 | 15.5 | 82 | 2,147,483,647 | 0.23 | 0 | 2.27 | 9.35 | 51.87 | 0 | 2.14 | 3.87 | 7.53 |
| 21:50 | 2 | 15.6 | 82 | 2,147,483,647 | 0.23 | 0 | 2.25 | 7.67 | 52.67 | 0 | 0 | 2.47 | 5.87 |
| 21:44 | 2 | 15.6 | 82 | 2,147,483,647 | 0.22 | 0 | 2.24 | 9.53 | 57.14 | 0 | 1.43 | 2.94 | 7.53 |
| 21:42 | 2 | 15.6 | 82 | 2,147,483,647 | 0.24 | 0 | 2.24 | 8.16 | 55.05 | 0 | 2.14 | 3.41 | 6.42 |